Time;durP1;ratioP1;P1;durP2;ratioP2;P2;SDS_P1;SDS_P2;PMS_P1;PMS_P2;Temp;Humidity;BMP_temperature;BMP_pressure;BME280_temperature;BME280_humidity;BME280_pressure;Samples;Min_cycle;Max_cycle;Signal;HPM_P1;HPM_P2
2023/03/04 00:00:27;;;;;;;7.57;1.90;;;;;;;5.04;83.13;102771.09;5031428;28;20314;-73
2023/03/04 00:02:53;;;;;;;13.65;2.20;;;;;;;5.05;83.11;102778.06;5034554;28;20277;-73
2023/03/04 00:05:18;;;;;;;13.80;2.28;;;;;;;5.04;83.10;102772.00;5035363;28;20371;-73
2023/03/04 00:07:44;;;;;;;7.55;1.95;;;;;;;5.05;83.17;102775.47;5032121;28;20045;-73
2023/03/04 00:10:10;;;;;;;12.70;2.03;;;;;;;5.05;83.47;102781.53;5034577;28;20040;-73
2023/03/04 00:12:36;;;;;;;12.45;2.20;;;;;;;5.05;83.56;102786.72;5034687;28;20041;-73
2023/03/04 00:15:01;;;;;;;10.50;2.50;;;;;;;5.05;83.50;102780.66;5034741;28;20044;-73
2023/03/04 00:17:28;;;;;;;13.95;2.85;;;;;;;5.05;83.49;102773.72;5035278;28;20040;-73
2023/03/04 00:19:55;;;;;;;9.18;2.60;;;;;;;5.05;83.38;102775.47;5032413;28;20097;-73
2023/03/04 00:22:20;;;;;;;9.77;1.60;;;;;;;5.04;83.57;102777.19;5035646;28;20312;-73
2023/03/04 00:24:45;;;;;;;14.02;2.22;;;;;;;5.05;83.64;102776.34;5034722;28;20082;-73
2023/03/04 00:27:11;;;;;;;6.53;1.70;;;;;;;5.06;83.99;102783.28;5036463;28;20604;-73
2023/03/04 00:29:36;;;;;;;10.75;2.20;;;;;;;5.07;83.68;102784.16;5034050;28;20037;-73
2023/03/04 00:32:01;;;;;;;11.27;1.90;;;;;;;5.07;83.62;102778.94;5034175;28;20056;-73
2023/03/04 00:34:27;;;;;;;5.57;1.58;;;;;;;5.05;83.68;102771.13;5037232;28;20041;-73
2023/03/04 00:36:52;;;;;;;14.23;2.22;;;;;;;5.04;83.66;102776.31;5033322;28;20290;-73
2023/03/04 00:39:18;;;;;;;9.77;2.00;;;;;;;5.03;83.67;102772.84;5036337;28;20045;-73
2023/03/04 00:41:43;;;;;;;6.50;2.15;;;;;;;5.04;83.63;102784.09;5037001;28;20079;-73
2023/03/04 00:44:08;;;;;;;15.75;2.10;;;;;;;5.02;83.72;102771.13;5035079;28;20049;-73
2023/03/04 00:46:34;;;;;;;11.45;1.85;;;;;;;5.02;83.65;102776.31;5036654;28;20360;-73
2023/03/04 00:49:00;;;;;;;9.00;1.77;;;;;;;5.01;83.74;102774.56;5036298;28;20043;-73
2023/03/04 00:51:25;;;;;;;5.65;1.55;;;;;;;5.00;83.86;102765.91;5036002;28;20067;-73
2023/03/04 00:53:51;;;;;;;6.78;1.67;;;;;;;5.01;84.03;102769.34;5037829;28;20104;-73
2023/03/04 00:56:17;;;;;;;5.18;1.52;;;;;;;5.03;84.26;102770.25;5037254;28;20325;-73
2023/03/04 00:58:42;;;;;;;12.95;1.80;;;;;;;5.03;84.30;102764.19;5034113;28;20138;-73
2023/03/04 01:01:08;;;;;;;14.73;1.85;;;;;;;5.04;84.34;102773.72;5037054;28;20049;-73
2023/03/04 01:03:33;;;;;;;14.65;1.75;;;;;;;5.03;84.45;102772.84;5032716;28;20052;-73
2023/03/04 01:05:59;;;;;;;7.00;1.73;;;;;;;5.04;84.73;102777.19;5026881;28;20285;-73
2023/03/04 01:08:25;;;;;;;4.95;1.23;;;;;;;5.05;84.53;102775.47;5025159;28;20048;-73
2023/03/04 01:10:50;;;;;;;7.70;1.95;;;;;;;5.06;84.62;102780.69;5036732;28;20039;-73
2023/03/04 01:13:16;;;;;;;6.68;1.40;;;;;;;5.06;84.70;102778.09;5038365;28;20100;-73
2023/03/04 01:15:41;;;;;;;7.65;1.63;;;;;;;5.07;84.71;102774.63;5038062;28;20340;-73
2023/03/04 01:18:07;;;;;;;8.23;1.77;;;;;;;5.07;84.74;102778.94;5038285;28;20416;-73
2023/03/04 01:20:32;;;;;;;11.98;1.55;;;;;;;5.07;84.27;102771.16;5037717;28;20279;-73
2023/03/04 01:22:58;;;;;;;6.68;1.85;;;;;;;5.06;84.14;102770.31;5037742;28;20049;-73
2023/03/04 01:25:23;;;;;;;6.28;1.15;;;;;;;5.06;83.92;102764.22;5037752;28;20067;-73
2023/03/04 01:27:48;;;;;;;7.35;1.63;;;;;;;5.05;83.16;102762.47;5037932;28;20055;-73
2023/03/04 01:30:14;;;;;;;9.93;1.25;;;;;;;5.04;82.81;102759.03;5038114;28;20037;-73
2023/03/04 01:32:39;;;;;;;3.67;0.90;;;;;;;5.03;82.93;102749.47;5037594;28;20098;-73
2023/03/04 01:35:05;;;;;;;12.82;1.88;;;;;;;5.02;82.68;102752.94;5037921;28;20041;-73
2023/03/04 01:37:30;;;;;;;10.23;2.03;;;;;;;5.01;82.77;102746.00;5037745;28;20033;-73
2023/03/04 01:39:56;;;;;;;5.90;1.48;;;;;;;4.99;82.79;102743.38;5038067;28;20372;-73
2023/03/04 01:42:25;;;;;;;3.70;1.30;;;;;;;5.00;82.99;102741.63;5037579;28;20448;-73
2023/03/04 01:44:51;;;;;;;8.88;1.30;;;;;;;5.00;83.08;102744.22;5037756;28;20057;-73
2023/03/04 01:47:17;;;;;;;13.60;1.35;;;;;;;4.99;82.72;102745.97;5021135;28;20048;-73
2023/03/04 01:49:43;;;;;;;15.93;2.13;;;;;;;4.99;82.68;102737.31;5037573;28;20083;-73
2023/03/04 01:52:12;;;;;;;6.97;1.20;;;;;;;4.99;82.53;102742.50;5036869;28;20045;-73
2023/03/04 01:54:38;;;;;;;9.05;1.85;;;;;;;4.97;82.39;102732.09;5037218;28;20098;-73
2023/03/04 01:57:28;;;;;;;10.25;1.58;;;;;;;4.98;82.19;102732.97;5037408;28;20056;-73
2023/03/04 02:00:30;;;;;;;8.02;1.77;;;;;;;4.99;82.72;102717.41;5026300;28;20072;-73
2023/03/04 02:03:10;;;;;;;8.52;1.08;;;;;;;5.00;82.98;102718.25;4997830;28;20045;-73
2023/03/04 02:05:38;;;;;;;6.90;1.60;;;;;;;5.00;83.24;102720.84;5037272;28;20093;-73
2023/03/04 02:08:04;;;;;;;8.30;1.50;;;;;;;5.00;83.56;102716.56;5037607;28;20044;-73
2023/03/04 02:10:30;;;;;;;7.57;1.02;;;;;;;5.00;83.08;102716.56;5037274;28;20075;-73
2023/03/04 02:12:57;;;;;;;8.95;1.33;;;;;;;5.02;83.23;102705.31;5037334;28;20079;-73
2023/03/04 02:15:23;;;;;;;4.72;1.10;;;;;;;5.02;83.25;102710.50;5037191;28;20113;-73
2023/03/04 02:17:49;;;;;;;10.13;1.45;;;;;;;5.01;83.50;102707.03;5036806;28;20033;-73
2023/03/04 02:20:27;;;;;;;9.05;1.83;;;;;;;5.03;83.54;102709.66;5037325;28;20083;-73
2023/03/04 02:23:03;;;;;;;12.18;1.10;;;;;;;5.03;83.80;102700.13;5036957;28;20045;-73
2023/03/04 02:25:37;;;;;;;7.55;1.23;;;;;;;5.05;84.22;102700.16;5036999;28;20356;-73
2023/03/04 02:28:02;;;;;;;7.50;1.45;;;;;;;5.05;83.86;102700.16;5037217;28;20083;-73
2023/03/04 02:30:28;;;;;;;6.07;1.10;;;;;;;5.06;84.01;102700.19;5036889;28;20144;-73
2023/03/04 02:32:53;;;;;;;8.60;1.17;;;;;;;5.05;83.70;102703.63;5037060;28;20079;-73
2023/03/04 02:35:20;;;;;;;9.73;1.63;;;;;;;5.03;83.52;102699.28;5037155;28;20156;-73
2023/03/04 02:37:45;;;;;;;16.20;1.65;;;;;;;5.00;83.22;102689.69;5036772;28;20041;-73
2023/03/04 02:40:28;;;;;;;5.32;1.33;;;;;;;5.00;83.43;102682.81;5037520;28;20404;-73
2023/03/04 02:42:54;;;;;;;6.88;1.20;;;;;;;5.02;83.70;102687.13;5037182;28;20037;-73
2023/03/04 02:45:49;;;;;;;8.40;1.23;;;;;;;5.02;83.54;102679.34;5036751;28;20064;-73
2023/03/04 02:48:18;;;;;;;9.35;1.33;;;;;;;5.01;83.29;102681.06;5023892;28;20083;-73
2023/03/04 02:50:48;;;;;;;7.93;1.40;;;;;;;5.00;83.21;102681.91;5036991;28;20041;-73
2023/03/04 02:53:14;;;;;;;6.53;1.10;;;;;;;4.99;83.11;102682.78;5037027;28;20033;-73
2023/03/04 02:55:41;;;;;;;6.60;1.75;;;;;;;4.98;83.07;102679.31;5037061;28;20341;-73
2023/03/04 02:58:06;;;;;;;8.32;1.38;;;;;;;4.99;83.25;102677.59;5037175;28;20384;-73
2023/03/04 03:00:32;;;;;;;7.18;1.40;;;;;;;4.98;83.20;102675.81;5037541;28;20277;-73
2023/03/04 03:02:58;;;;;;;6.30;1.35;;;;;;;4.98;83.27;102673.22;5040660;28;20396;-73
2023/03/04 03:05:30;;;;;;;4.72;0.82;;;;;;;4.99;83.36;102682.78;5038949;28;20036;-73
2023/03/04 03:07:55;;;;;;;10.25;1.60;;;;;;;4.97;83.05;102674.97;5040797;28;20033;-73
2023/03/04 03:10:20;;;;;;;9.35;1.70;;;;;;;4.97;82.96;102676.69;5040612;28;20041;-73
2023/03/04 03:12:46;;;;;;;8.52;1.23;;;;;;;4.97;82.59;102682.75;5040465;28;20106;-73
2023/03/04 03:15:12;;;;;;;10.70;1.30;;;;;;;4.95;82.78;102671.47;5040775;28;20041;-73
2023/03/04 03:17:37;;;;;;;16.60;1.63;;;;;;;4.94;82.96;102677.50;5039846;28;20029;-73
2023/03/04 03:20:03;;;;;;;6.70;1.00;;;;;;;4.94;83.02;102667.13;5039231;28;20041;-73
2023/03/04 03:22:29;;;;;;;13.38;2.08;;;;;;;4.94;83.23;102672.31;5040136;28;20088;-73
2023/03/04 03:24:54;;;;;;;11.00;1.65;;;;;;;4.92;82.73;102676.63;5040376;28;20329;-73
2023/03/04 03:27:20;;;;;;;12.82;1.25;;;;;;;4.92;82.99;102675.75;5040477;28;20029;-73
2023/03/04 03:29:45;;;;;;;14.18;1.50;;;;;;;4.91;82.93;102679.19;5040054;28;20220;-73
2023/03/04 03:32:10;;;;;;;8.57;1.23;;;;;;;4.92;83.17;102670.56;5040554;28;20046;-73
2023/03/04 03:34:36;;;;;;;9.07;1.50;;;;;;;4.91;83.00;102680.09;5040215;28;20072;-73
2023/03/04 03:37:01;;;;;;;7.20;0.88;;;;;;;4.90;82.66;102670.53;5040745;28;20045;-73
2023/03/04 03:39:26;;;;;;;11.48;1.83;;;;;;;4.89;82.60;102670.53;5040015;28;20103;-73
2023/03/04 03:41:52;;;;;;;8.32;1.35;;;;;;;4.89;82.90;102668.78;5040011;28;20060;-73
2023/03/04 03:44:17;;;;;;;12.25;2.53;;;;;;;4.88;82.62;102671.41;5039687;28;20104;-73
2023/03/04 03:46:43;;;;;;;8.60;1.02;;;;;;;4.88;82.74;102671.41;5039956;28;20113;-72
2023/03/04 03:49:08;;;;;;;7.15;1.38;;;;;;;4.88;82.91;102671.41;5040118;28;20060;-73
2023/03/04 03:51:33;;;;;;;8.30;1.30;;;;;;;4.87;83.07;102670.50;5042997;28;20067;-71
2023/03/04 03:53:59;;;;;;;9.13;1.10;;;;;;;4.87;83.25;102672.22;5042469;28;20131;-71
2023/03/04 03:56:24;;;;;;;6.68;1.15;;;;;;;4.87;82.62;102672.22;5041863;28;20064;-71
2023/03/04 03:58:49;;;;;;;7.18;1.35;;;;;;;4.87;82.80;102667.03;5043222;28;20029;-71
2023/03/04 04:01:15;;;;;;;9.18;1.25;;;;;;;4.86;82.63;102673.97;5042615;28;20370;-71
2023/03/04 04:03:40;;;;;;;6.00;1.30;;;;;;;4.86;82.83;102671.38;5042893;28;20048;-71
2023/03/04 04:06:06;;;;;;;7.15;1.55;;;;;;;4.87;83.00;102673.09;5043137;28;20048;-70
2023/03/04 04:08:32;;;;;;;6.90;1.00;;;;;;;4.87;83.17;102678.28;5042393;28;20258;-70
2023/03/04 04:10:57;;;;;;;6.15;0.90;;;;;;;4.86;82.60;102675.66;5042653;28;20119;-70
2023/03/04 04:13:23;;;;;;;6.90;1.27;;;;;;;4.85;82.85;102669.63;5042390;28;20021;-70
2023/03/04 04:15:50;;;;;;;3.78;0.90;;;;;;;4.84;82.59;102678.28;5042536;28;20261;-70
2023/03/04 04:18:15;;;;;;;5.53;0.90;;;;;;;4.84;82.76;102673.09;5042419;28;20332;-70
2023/03/04 04:20:41;;;;;;;5.68;1.55;;;;;;;4.85;82.54;102681.72;5042854;28;20059;-70
2023/03/04 04:23:06;;;;;;;12.07;1.45;;;;;;;4.84;82.37;102678.28;5043345;28;20045;-70
2023/03/04 04:25:32;;;;;;;2.25;0.70;;;;;;;4.83;82.55;102670.47;5042381;28;20039;-70
2023/03/04 04:27:57;;;;;;;5.47;1.08;;;;;;;4.83;82.94;102666.13;5043216;28;20037;-70
2023/03/04 04:30:22;;;;;;;4.88;0.73;;;;;;;4.82;83.09;102674.78;5042368;28;20068;-70
2023/03/04 04:32:48;;;;;;;5.32;1.00;;;;;;;4.81;83.58;102666.09;5042643;28;20037;-70
2023/03/04 04:35:13;;;;;;;9.05;1.05;;;;;;;4.81;83.96;102668.69;5043080;28;20039;-70
2023/03/04 04:37:39;;;;;;;2.28;0.95;;;;;;;4.81;83.97;102673.03;5042570;28;20041;-70
2023/03/04 04:40:05;;;;;;;4.90;0.88;;;;;;;4.80;84.30;102672.16;5042431;28;20048;-70
2023/03/04 04:42:30;;;;;;;9.38;1.58;;;;;;;4.81;84.20;102675.63;5042023;28;20029;-70
2023/03/04 04:44:56;;;;;;;7.93;1.13;;;;;;;4.81;84.30;102676.50;5042298;28;20057;-70
2023/03/04 04:47:21;;;;;;;14.05;1.55;;;;;;;4.81;83.91;102673.91;5042147;28;20048;-70
2023/03/04 04:49:47;;;;;;;6.38;0.80;;;;;;;4.80;83.91;102679.97;5042436;28;20037;-70
2023/03/04 04:52:12;;;;;;;9.73;0.93;;;;;;;4.80;83.94;102679.97;5042669;28;20245;-70
2023/03/04 04:54:38;;;;;;;2.92;0.60;;;;;;;4.80;83.82;102676.47;5042145;28;20041;-70
2023/03/04 04:57:03;;;;;;;4.05;0.70;;;;;;;4.81;84.02;102679.09;5041071;28;20041;-70
2023/03/04 04:59:29;;;;;;;9.48;1.00;;;;;;;4.82;83.71;102682.56;5042342;28;20033;-70
2023/03/04 05:01:54;;;;;;;6.07;1.13;;;;;;;4.81;83.76;102681.69;5042524;28;20383;-70
2023/03/04 05:04:19;;;;;;;9.82;1.80;;;;;;;4.83;84.08;102681.72;5042113;28;20049;-70
2023/03/04 05:06:45;;;;;;;4.45;1.48;;;;;;;4.84;84.03;102687.75;5041861;28;20033;-70
2023/03/04 05:09:11;;;;;;;4.57;1.52;;;;;;;4.85;84.07;102686.94;5041922;28;20057;-70
2023/03/04 05:11:37;;;;;;;5.65;1.50;;;;;;;4.86;84.18;102686.06;5041428;28;20045;-70
2023/03/04 05:14:02;;;;;;;8.50;1.17;;;;;;;4.85;83.28;102671.34;5042290;28;20040;-70
2023/03/04 05:16:27;;;;;;;2.75;0.80;;;;;;;4.86;83.68;102676.56;5041011;28;20044;-70
2023/03/04 05:18:53;;;;;;;4.65;1.20;;;;;;;4.87;83.95;102680.03;5041756;28;20033;-70
2023/03/04 05:21:18;;;;;;;4.18;0.93;;;;;;;4.86;83.94;102684.34;5041340;28;20096;-70
2023/03/04 05:23:45;;;;;;;4.53;1.10;;;;;;;4.85;83.95;102672.22;5041287;28;20044;-70
2023/03/04 05:26:13;;;;;;;4.38;1.10;;;;;;;4.86;84.23;102673.06;5042325;28;20533;-70
2023/03/04 05:28:39;;;;;;;2.60;1.00;;;;;;;4.86;84.41;102683.47;5041058;28;20075;-70
2023/03/04 05:31:05;;;;;;;2.55;1.05;;;;;;;4.88;84.80;102686.97;5041474;28;20041;-70
2023/03/04 05:33:30;;;;;;;2.80;1.10;;;;;;;4.89;85.01;102681.78;5041041;28;20337;-70
2023/03/04 05:35:56;;;;;;;5.00;1.30;;;;;;;4.88;84.92;102677.44;5041451;28;20044;-71
2023/03/04 05:38:21;;;;;;;3.90;1.05;;;;;;;4.89;85.01;102681.78;5041300;28;20040;-71
2023/03/04 05:40:48;;;;;;;4.43;1.25;;;;;;;4.89;85.16;102673.13;5041100;28;20452;-71
2023/03/04 05:43:14;;;;;;;2.38;0.88;;;;;;;4.90;85.47;102677.47;5038290;28;20025;-71
2023/03/04 05:45:40;;;;;;;3.47;1.05;;;;;;;4.91;85.71;102674.91;5028906;28;20151;-71
2023/03/04 05:48:06;;;;;;;4.55;1.02;;;;;;;4.90;85.78;102678.34;5041206;28;20029;-71
2023/03/04 05:50:32;;;;;;;6.35;1.10;;;;;;;4.92;86.07;102676.63;5040590;28;20105;-71
2023/03/04 05:52:57;;;;;;;2.70;1.02;;;;;;;4.93;86.17;102677.50;5041149;28;20087;-71
2023/03/04 05:55:23;;;;;;;2.72;0.90;;;;;;;4.94;86.41;102676.66;5040720;28;20041;-71
2023/03/04 05:57:49;;;;;;;7.22;1.10;;;;;;;4.94;86.53;102677.50;5041480;28;20100;-71
2023/03/04 06:00:15;;;;;;;5.32;1.00;;;;;;;4.94;86.49;102674.06;5040638;28;20049;-70
2023/03/04 06:02:42;;;;;;;5.97;1.00;;;;;;;4.95;86.39;102671.47;5040582;28;20056;-70
2023/03/04 06:05:08;;;;;;;7.60;1.33;;;;;;;4.95;86.58;102668.03;5041201;28;20087;-70
2023/03/04 06:07:34;;;;;;;5.20;1.33;;;;;;;4.94;86.56;102659.34;5039780;28;20487;-70
2023/03/04 06:09:59;;;;;;;3.78;1.25;;;;;;;4.96;86.74;102664.56;5041596;28;20041;-70
2023/03/04 06:12:25;;;;;;;3.95;1.15;;;;;;;4.96;86.89;102661.97;5040329;28;20549;-70
2023/03/04 06:14:50;;;;;;;3.33;1.30;;;;;;;4.96;87.00;102660.22;5039895;28;20544;-70
2023/03/04 06:17:16;;;;;;;6.68;1.33;;;;;;;4.96;87.34;102665.41;5040423;28;20041;-70
2023/03/04 06:19:42;;;;;;;4.68;1.30;;;;;;;4.97;87.23;102671.50;5040729;28;20271;-70
2023/03/04 06:22:08;;;;;;;5.07;1.65;;;;;;;4.96;87.02;102675.81;5040787;28;20071;-70
2023/03/04 06:24:34;;;;;;;2.05;0.98;;;;;;;4.95;87.16;102681.88;5040305;28;20065;-70
2023/03/04 06:27:00;;;;;;;5.03;1.23;;;;;;;4.95;87.04;102684.47;5040479;28;20033;-70
2023/03/04 06:29:26;;;;;;;4.40;1.10;;;;;;;4.95;87.51;102678.41;5040161;28;20037;-70
2023/03/04 06:31:51;;;;;;;5.20;1.40;;;;;;;4.96;87.66;102677.53;5040834;28;20252;-70
2023/03/04 06:34:17;;;;;;;3.22;1.25;;;;;;;4.95;87.73;102679.28;5040528;28;20101;-70
2023/03/04 06:36:42;;;;;;;3.78;1.08;;;;;;;4.95;87.86;102681.88;5044124;28;20045;-70
2023/03/04 06:39:08;;;;;;;2.92;0.90;;;;;;;4.96;88.10;102678.41;5045180;28;20361;-70
2023/03/04 06:41:34;;;;;;;5.18;1.13;;;;;;;4.97;88.17;102679.28;5030987;28;20040;-70
2023/03/04 06:44:00;;;;;;;4.68;0.90;;;;;;;4.98;88.42;102686.22;5044525;28;20097;-70
2023/03/04 06:46:25;;;;;;;5.20;1.10;;;;;;;4.98;88.67;102681.03;5043966;28;20336;-70
2023/03/04 06:48:51;;;;;;;5.45;1.45;;;;;;;4.97;88.75;102682.75;5044724;28;20229;-70
2023/03/04 06:51:16;;;;;;;2.03;1.00;;;;;;;4.98;89.14;102681.91;5044034;28;20033;-70
2023/03/04 06:53:42;;;;;;;1.90;0.65;;;;;;;4.99;89.26;102685.38;5045190;28;20092;-70
2023/03/04 06:56:09;;;;;;;6.82;1.23;;;;;;;5.00;89.52;102689.69;5044557;28;20049;-70
2023/03/04 06:58:35;;;;;;;3.50;1.00;;;;;;;5.00;89.67;102693.19;5043872;28;20087;-70
2023/03/04 07:01:20;;;;;;;3.38;0.90;;;;;;;5.02;89.87;102694.91;5044557;28;20383;-70
2023/03/04 07:03:47;;;;;;;7.65;1.00;;;;;;;5.03;89.97;102702.72;5043766;28;20364;-71
2023/03/04 07:06:15;;;;;;;3.28;0.70;;;;;;;5.04;90.28;102694.09;5044296;28;20049;-71
2023/03/04 07:08:41;;;;;;;4.43;1.00;;;;;;;5.05;90.29;102697.56;5044180;28;20096;-71
2023/03/04 07:11:07;;;;;;;3.70;1.05;;;;;;;5.08;90.46;102700.19;5044096;28;20321;-71
2023/03/04 07:13:36;;;;;;;2.38;0.80;;;;;;;5.09;90.53;102696.72;5044092;28;20104;-71
2023/03/04 07:16:03;;;;;;;3.55;0.82;;;;;;;5.10;90.67;102698.50;5044810;28;20033;-71
2023/03/04 07:18:28;;;;;;;3.17;1.00;;;;;;;5.11;90.80;102700.22;5044263;28;20045;-71
2023/03/04 07:20:54;;;;;;;3.78;0.93;;;;;;;5.12;90.86;102701.97;5043932;28;20272;-71
2023/03/04 07:23:19;;;;;;;4.35;1.02;;;;;;;5.12;90.74;102707.16;5043733;28;20276;-71
2023/03/04 07:25:47;;;;;;;3.30;1.20;;;;;;;5.10;90.51;102707.16;5043375;28;20383;-71
2023/03/04 07:28:12;;;;;;;6.72;1.15;;;;;;;5.09;89.92;102707.97;5041152;28;20308;-71
2023/03/04 07:30:37;;;;;;;6.75;1.35;;;;;;;5.09;89.93;102715.78;5041570;28;20041;-71
2023/03/04 07:33:03;;;;;;;4.22;0.98;;;;;;;5.07;89.86;102724.41;5042020;28;20047;-71
2023/03/04 07:35:28;;;;;;;3.50;0.85;;;;;;;5.05;90.21;102721.78;5042737;28;20055;-71
2023/03/04 07:37:53;;;;;;;2.35;0.60;;;;;;;5.03;90.43;102720.03;5043842;28;20037;-71
2023/03/04 07:40:19;;;;;;;1.55;0.50;;;;;;;5.02;90.52;102715.69;5043353;28;20040;-71
2023/03/04 07:42:52;;;;;;;3.38;0.70;;;;;;;5.03;90.87;102720.91;5043560;28;20033;-71
2023/03/04 07:45:18;;;;;;;1.83;0.70;;;;;;;5.04;91.10;102727.84;5041184;28;20049;-71
2023/03/04 07:47:44;;;;;;;2.42;0.93;;;;;;;5.06;91.11;102726.16;5042504;28;20051;-71
2023/03/04 07:50:10;;;;;;;0.70;0.35;;;;;;;5.07;91.47;102727.88;5043503;28;20033;-71
2023/03/04 07:52:41;;;;;;;3.05;0.80;;;;;;;5.09;91.68;102731.34;5042893;28;20041;-71
2023/03/04 07:55:09;;;;;;;2.65;0.82;;;;;;;5.11;91.73;102737.47;5042497;28;20345;-71
2023/03/04 07:57:34;;;;;;;3.17;0.75;;;;;;;5.14;92.13;102741.81;5042813;28;20041;-71
2023/03/04 08:00:00;;;;;;;2.78;0.90;;;;;;;5.15;92.43;102746.19;5043172;28;20049;-71
2023/03/04 08:02:25;;;;;;;0.88;0.57;;;;;;;5.15;92.46;102748.78;5042295;28;20045;-71
2023/03/04 08:04:50;;;;;;;1.88;0.50;;;;;;;5.17;92.36;102745.31;5042910;28;20041;-71
2023/03/04 08:07:16;;;;;;;5.18;1.10;;;;;;;5.16;92.97;102743.56;5042267;28;20041;-71
2023/03/04 08:09:42;;;;;;;2.92;0.77;;;;;;;5.18;93.06;102746.19;5042836;28;20041;-71
2023/03/04 08:12:07;;;;;;;1.45;0.95;;;;;;;5.19;93.30;102734.97;5042774;28;20060;-71
2023/03/04 08:14:33;;;;;;;4.50;1.00;;;;;;;5.20;93.72;102741.88;5042281;28;20330;-71
2023/03/04 08:16:58;;;;;;;1.92;0.90;;;;;;;5.21;93.72;102735.84;5042087;28;20072;-71
2023/03/04 08:19:24;;;;;;;4.40;0.65;;;;;;;5.22;94.06;102731.50;5042249;28;20037;-71
2023/03/04 08:21:49;;;;;;;2.28;0.60;;;;;;;5.23;94.23;102738.47;5042604;28;20071;-71
2023/03/04 08:24:14;;;;;;;3.78;0.65;;;;;;;5.23;94.26;102741.94;5042178;28;20040;-71
2023/03/04 08:26:43;;;;;;;1.33;0.57;;;;;;;5.25;94.32;102736.75;5041869;28;20041;-71
2023/03/04 08:29:12;;;;;;;4.55;0.68;;;;;;;5.25;94.28;102734.16;5043063;28;20041;-71
2023/03/04 08:31:38;;;;;;;3.83;0.60;;;;;;;5.27;94.13;102742.84;5041841;28;20383;-70
2023/03/04 08:34:05;;;;;;;4.75;0.60;;;;;;;5.29;94.08;102744.59;5042719;28;20033;-70
2023/03/04 08:36:30;;;;;;;2.90;0.60;;;;;;;5.31;94.24;102739.41;5040619;28;20033;-70
2023/03/04 08:38:56;;;;;;;2.95;0.45;;;;;;;5.33;94.29;102732.50;5041885;28;20041;-70
2023/03/04 08:41:21;;;;;;;3.85;0.65;;;;;;;5.37;94.28;102739.50;5042210;28;20044;-70
2023/03/04 08:43:47;;;;;;;2.15;0.40;;;;;;;5.41;94.14;102728.28;5040370;28;20038;-70
2023/03/04 08:46:12;;;;;;;1.20;0.30;;;;;;;5.44;93.61;102728.31;5042284;28;20127;-70
2023/03/04 08:48:38;;;;;;;2.03;0.50;;;;;;;5.47;93.53;102738.72;5035180;28;20207;-70
2023/03/04 08:51:09;;;;;;;1.63;0.30;;;;;;;5.50;93.48;102745.72;5040449;28;20229;-70
2023/03/04 08:53:34;;;;;;;1.63;0.30;;;;;;;5.52;94.08;102744.00;5041963;28;20248;-70
2023/03/04 08:55:59;;;;;;;0.47;0.30;;;;;;;5.50;94.49;102736.19;5042978;28;20041;-70
2023/03/04 08:58:25;;;;;;;4.07;0.75;;;;;;;5.49;95.40;102734.41;5041264;28;20045;-71
2023/03/04 09:00:50;;;;;;;3.83;0.50;;;;;;;5.48;95.92;102737.88;5042927;28;20041;-71
2023/03/04 09:03:18;;;;;;;3.03;0.35;;;;;;;5.47;96.11;102730.94;5041880;28;20035;-71
2023/03/04 09:05:44;;;;;;;3.42;0.60;;;;;;;5.48;96.61;102734.44;5042250;28;20063;-71
2023/03/04 09:08:10;;;;;;;5.30;0.70;;;;;;;5.47;96.81;102733.53;5042906;28;20447;-71
2023/03/04 09:10:35;;;;;;;1.95;0.30;;;;;;;5.48;96.97;102724.91;5042138;28;20044;-71
2023/03/04 09:13:01;;;;;;;1.30;0.40;;;;;;;5.48;97.29;102726.63;5042557;28;20037;-71
2023/03/04 09:15:27;;;;;;;2.72;0.50;;;;;;;5.49;97.62;102730.97;5041440;28;20072;-71
2023/03/04 09:17:53;;;;;;;0.52;0.43;;;;;;;5.49;98.07;102713.63;5041364;28;20037;-71
2023/03/04 09:20:19;;;;;;;2.55;0.68;;;;;;;5.51;98.39;102717.13;5041846;28;20037;-71
2023/03/04 09:22:45;;;;;;;1.92;0.45;;;;;;;5.52;98.74;102723.19;5041617;28;20095;-71
2023/03/04 09:25:13;;;;;;;2.42;0.50;;;;;;;5.55;98.63;102716.31;5042234;28;20056;-71
2023/03/04 09:27:39;;;;;;;2.60;0.50;;;;;;;5.59;98.72;102714.63;5041737;28;20091;-71
2023/03/04 09:30:05;;;;;;;2.33;0.65;;;;;;;5.61;99.31;102714.63;5042216;28;20033;-71
2023/03/04 09:32:30;;;;;;;7.10;1.00;;;;;;;5.67;99.82;102714.69;5041227;28;20319;-71
2023/03/04 09:34:55;;;;;;;3.03;0.85;;;;;;;5.73;99.78;102719.94;5040957;28;20037;-71
2023/03/04 09:37:21;;;;;;;5.47;0.75;;;;;;;5.77;99.14;102711.31;5038264;28;20047;-70
2023/03/04 09:39:48;;;;;;;2.53;0.80;;;;;;;5.85;99.00;102714.84;5041170;28;20068;-70
2023/03/04 09:42:26;;;;;;;4.85;0.73;;;;;;;5.90;99.35;102715.75;5040229;28;20033;-70
2023/03/04 09:44:53;;;;;;;3.10;0.63;;;;;;;5.95;99.35;102719.31;5038752;28;20056;-72
2023/03/04 09:47:23;;;;;;;1.92;0.60;;;;;;;5.96;98.91;102715.84;5036994;28;20090;-71
2023/03/04 09:50:01;;;;;;;4.50;0.70;;;;;;;5.98;99.16;102710.66;5036412;28;20029;-71
2023/03/04 09:52:43;;;;;;;6.63;0.90;;;;;;;5.99;98.76;102714.16;5035664;28;20037;-71
2023/03/04 09:55:24;;;;;;;2.53;0.63;;;;;;;6.00;98.15;102708.94;5035368;28;20036;-70
2023/03/04 09:58:14;;;;;;;3.13;0.65;;;;;;;6.01;97.07;102713.28;5034876;28;20053;-70
2023/03/04 10:00:45;;;;;;;6.93;0.70;;;;;;;6.04;97.03;102709.84;5035579;28;20037;-71
2023/03/04 10:03:27;;;;;;;6.57;0.40;;;;;;;6.06;96.92;102703.81;5025830;28;20048;-70
2023/03/04 10:06:04;;;;;;;4.95;0.82;;;;;;;6.08;96.11;102717.69;5030876;28;20052;-70
2023/03/04 10:08:49;;;;;;;3.30;0.93;;;;;;;6.08;96.33;102709.88;5032618;28;20403;-70
2023/03/04 10:12:03;;;;;;;6.57;1.13;;;;;;;6.08;97.25;102715.09;5029068;28;20037;-70
2023/03/04 10:15:00;;;;;;;3.38;0.65;;;;;;;6.07;97.81;102709.88;5021519;28;20045;-70
2023/03/04 10:17:41;;;;;;;1.55;0.70;;;;;;;6.07;98.27;102717.66;5015186;28;20044;-70
2023/03/04 10:20:16;;;;;;;3.45;1.00;;;;;;;6.06;98.89;102719.41;5032490;28;20052;-70
2023/03/04 10:22:56;;;;;;;4.70;0.52;;;;;;;6.05;99.07;102722.00;5040088;28;20232;-70
2023/03/04 10:25:30;;;;;;;1.60;0.38;;;;;;;6.04;99.14;102721.13;5040002;28;20283;-70
2023/03/04 10:28:02;;;;;;;1.70;0.50;;;;;;;6.03;98.80;102724.56;5031549;28;20028;-70
2023/03/04 10:30:45;;;;;;;2.20;0.40;;;;;;;6.03;99.20;102708.97;5039004;28;20065;-70
2023/03/04 10:33:24;;;;;;;3.40;0.30;;;;;;;6.03;99.55;102716.78;5037511;28;20029;-70
2023/03/04 10:35:55;;;;;;;1.73;0.30;;;;;;;6.04;99.70;102715.03;5037046;28;20057;-70
2023/03/04 10:38:22;;;;;;;0.98;0.47;;;;;;;6.07;100.00;102715.06;5040348;28;20036;-70
2023/03/04 10:40:47;;;;;;;4.28;0.70;;;;;;;6.10;100.00;102715.09;5039800;28;20041;-70
2023/03/04 10:43:18;;;;;;;1.92;0.93;;;;;;;6.11;100.00;102717.72;5040638;28;20105;-70
2023/03/04 10:45:44;;;;;;;3.30;0.70;;;;;;;6.17;100.00;102705.59;5038508;28;20049;-70
2023/03/04 10:48:21;;;;;;;1.77;0.60;;;;;;;6.19;99.14;102706.50;5041325;28;20329;-70
2023/03/04 10:50:47;;;;;;;6.75;1.38;;;;;;;6.23;98.47;102696.13;5038279;28;20459;-69
2023/03/04 10:53:28;;;;;;;4.70;1.17;;;;;;;6.27;98.29;102700.47;5038905;28;20045;-69
2023/03/04 10:55:53;;;;;;;18.13;2.30;;;;;;;6.31;97.28;102694.47;5038878;28;20092;-69
2023/03/04 10:58:19;;;;;;;4.15;1.30;;;;;;;6.36;96.92;102689.25;5038547;28;20041;-69
2023/03/04 11:00:59;;;;;;;11.57;0.73;;;;;;;6.40;97.13;102692.75;5038653;28;20049;-69
2023/03/04 11:03:35;;;;;;;5.80;0.82;;;;;;;6.43;97.16;102683.22;5035550;28;20045;-69
2023/03/04 11:06:14;;;;;;;4.28;0.90;;;;;;;6.46;97.00;102688.47;5037001;28;20052;-70
2023/03/04 11:08:41;;;;;;;12.50;1.38;;;;;;;6.48;96.77;102685.88;5038305;28;20120;-70
2023/03/04 11:11:22;;;;;;;5.95;1.00;;;;;;;6.50;96.00;102689.34;5038372;28;20036;-69
2023/03/04 11:14:00;;;;;;;2.65;0.80;;;;;;;6.49;94.12;102685.91;5037546;28;20093;-69
2023/03/04 11:16:29;;;;;;;6.22;1.00;;;;;;;6.52;93.22;102682.44;5035449;28;20428;-69
2023/03/04 11:19:05;;;;;;;7.30;0.90;;;;;;;6.53;93.91;102689.34;5036285;28;20032;-69
2023/03/04 11:21:36;;;;;;;2.13;0.70;;;;;;;6.54;94.54;102691.09;5040651;28;20042;-70
2023/03/04 11:24:13;;;;;;;2.38;0.80;;;;;;;6.52;95.42;102692.84;5040362;28;20064;-70
2023/03/04 11:26:50;;;;;;;2.08;0.43;;;;;;;6.49;96.62;102683.28;5040219;28;20332;-70
2023/03/04 11:29:23;;;;;;;7.03;0.60;;;;;;;6.46;97.71;102682.41;5040709;28;20033;-70
2023/03/04 11:32:14;;;;;;;3.30;0.85;;;;;;;6.41;98.19;102682.34;5040995;28;20232;-70
2023/03/04 11:34:49;;;;;;;2.28;0.80;;;;;;;6.37;98.29;102680.59;5040628;28;20030;-70